Time;durP1;ratioP1;P1;durP2;ratioP2;P2;SDS_P1;SDS_P2;PMS_P1;PMS_P2;Temp;Humidity;BMP_temperature;BMP_pressure;BME280_temperature;BME280_humidity;BME280_pressure;Samples;Min_cycle;Max_cycle;Signal;HPM_P1;HPM_P2
2022/01/11 00:02:06;;;;;;;8.70;4.60;;;;;;;0.84;80.60;93214.81;4998305;28;20404;-74
2022/01/11 00:04:31;;;;;;;5.10;3.97;;;;;;;0.73;79.80;93209.63;5008019;28;20063;-74
2022/01/11 00:06:58;;;;;;;8.65;4.38;;;;;;;0.43;80.62;93209.69;5020554;28;20025;-75
2022/01/11 00:09:39;;;;;;;5.57;3.08;;;;;;;0.32;80.78;93195.03;5006380;28;20057;-74
2022/01/11 00:12:08;;;;;;;4.75;3.30;;;;;;;0.73;80.52;93211.44;5021424;28;20716;-73
2022/01/11 00:14:33;;;;;;;7.25;4.07;;;;;;;1.32;79.23;93221.97;5014130;28;20178;-74
2022/01/11 00:16:59;;;;;;;5.85;2.95;;;;;;;1.49;77.62;93232.06;5021743;28;20034;-74
2022/01/11 00:19:28;;;;;;;7.00;2.60;;;;;;;1.23;77.18;93228.78;5020900;28;20126;-73
2022/01/11 00:21:54;;;;;;;3.80;1.70;;;;;;;1.04;76.76;93215.50;5017886;28;20588;-73
2022/01/11 00:24:32;;;;;;;2.28;1.70;;;;;;;1.30;76.23;93229.28;5011556;28;20051;-73
2022/01/11 00:27:00;;;;;;;2.60;1.40;;;;;;;0.97;76.50;93237.81;5012210;28;20049;-74
2022/01/11 00:29:35;;;;;;;3.60;1.52;;;;;;;1.01;76.26;93225.75;5013343;28;20040;-75
2022/01/11 00:32:06;;;;;;;2.67;1.60;;;;;;;1.22;76.18;93242.97;5019606;28;20049;-73
2022/01/11 00:34:46;;;;;;;2.22;2.00;;;;;;;0.63;77.34;93220.13;5007555;28;20399;-73
2022/01/11 00:37:11;;;;;;;1.88;1.63;;;;;;;0.69;77.80;93245.19;5029153;28;20057;-73
2022/01/11 00:39:37;;;;;;;2.00;1.80;;;;;;;0.60;77.90;93212.78;5010755;28;20164;-73
2022/01/11 00:42:02;;;;;;;2.10;1.60;;;;;;;1.08;76.99;93236.72;5013495;28;20082;-75
2022/01/11 00:44:28;;;;;;;3.88;1.83;;;;;;;1.06;76.60;93238.81;5011028;28;20037;-73
2022/01/11 00:46:53;;;;;;;4.25;1.85;;;;;;;1.04;76.52;93246.94;5011502;28;20072;-74
2022/01/11 00:49:20;;;;;;;2.55;1.65;;;;;;;1.37;76.04;93253.38;5009341;28;20025;-75
2022/01/11 00:51:45;;;;;;;9.35;4.00;;;;;;;1.99;74.46;93246.75;5015704;28;20029;-73
2022/01/11 00:54:11;;;;;;;5.18;2.63;;;;;;;2.60;71.90;93259.38;5011736;28;20269;-74
2022/01/11 00:56:36;;;;;;;4.50;2.28;;;;;;;2.66;70.06;93264.28;5023068;28;20032;-73
2022/01/11 00:59:02;;;;;;;4.75;2.47;;;;;;;1.96;70.86;93269.03;5011430;28;20462;-74
2022/01/11 01:01:27;;;;;;;3.00;2.17;;;;;;;2.01;70.50;93249.88;5028140;28;20556;-73
2022/01/11 01:03:54;;;;;;;3.95;2.63;;;;;;;2.18;69.46;93212.75;5008008;28;20116;-74
2022/01/11 01:06:20;;;;;;;3.42;2.58;;;;;;;2.70;69.10;93265.31;5016335;28;20037;-74
2022/01/11 01:08:45;;;;;;;7.45;4.75;;;;;;;3.13;67.65;93274.09;5022489;28;20575;-74
2022/01/11 01:11:11;;;;;;;3.33;2.97;;;;;;;3.29;66.71;93259.69;5018297;28;20041;-73
2022/01/11 01:13:45;;;;;;;4.57;2.40;;;;;;;3.17;66.47;93275.09;5017524;28;20681;-75
2022/01/11 01:16:10;;;;;;;6.65;2.53;;;;;;;3.42;65.69;93278.50;5018062;28;20581;-74
2022/01/11 01:18:36;;;;;;;4.07;2.95;;;;;;;3.18;65.46;93278.50;5022545;28;20552;-73
2022/01/11 01:21:02;;;;;;;1.88;1.73;;;;;;;3.71;63.44;93272.06;5024717;28;20045;-74
2022/01/11 01:23:28;;;;;;;2.50;2.17;;;;;;;3.70;62.82;93264.47;5016811;28;20374;-74
2022/01/11 01:25:54;;;;;;;3.17;2.08;;;;;;;3.77;62.72;93275.41;5008521;28;20579;-72
2022/01/11 01:28:20;;;;;;;2.47;1.75;;;;;;;3.67;62.51;93286.06;5015844;28;20033;-75
2022/01/11 01:30:48;;;;;;;5.20;4.32;;;;;;;3.41;62.34;93277.69;5027164;28;20365;-74
2022/01/11 01:33:14;;;;;;;3.50;2.05;;;;;;;3.99;60.88;93288.78;5003994;28;20836;-74
2022/01/11 01:35:42;;;;;;;1.38;1.20;;;;;;;3.88;60.50;93292.63;5028488;28;20048;-74
2022/01/11 01:38:08;;;;;;;2.17;1.00;;;;;;;3.72;60.07;93289.41;5024238;28;20033;-74
2022/01/11 01:40:42;;;;;;;1.75;1.02;;;;;;;3.90;59.40;93306.28;5014318;28;20180;-74
2022/01/11 01:43:09;;;;;;;6.15;2.08;;;;;;;3.67;59.90;93283.44;5025819;28;20051;-72
2022/01/11 01:45:36;;;;;;;1.33;1.10;;;;;;;3.98;58.59;93295.09;5010166;28;20048;-74
2022/01/11 01:48:03;;;;;;;2.35;1.23;;;;;;;3.72;58.83;93268.34;5008386;28;20172;-75
2022/01/11 01:50:30;;;;;;;1.13;1.00;;;;;;;3.76;59.92;93302.78;5016238;28;20050;-74
2022/01/11 01:52:58;;;;;;;1.00;1.00;;;;;;;3.73;59.74;93301.47;5021202;28;20145;-74
2022/01/11 01:55:25;;;;;;;1.05;1.05;;;;;;;3.77;59.55;93304.34;5008441;28;20060;-75
2022/01/11 01:57:51;;;;;;;0.77;0.77;;;;;;;3.87;59.13;93301.56;5023658;28;20060;-73
2022/01/11 02:00:18;;;;;;;0.90;0.90;;;;;;;3.86;59.03;93300.03;5016304;28;20136;-73
2022/01/11 02:02:44;;;;;;;1.13;0.90;;;;;;;4.08;58.34;93305.50;5022366;28;20984;-74
2022/01/11 02:05:18;;;;;;;2.00;1.00;;;;;;;4.05;58.52;93311.34;5012579;28;20131;-76
2022/01/11 02:07:44;;;;;;;1.48;0.90;;;;;;;4.19;57.48;93304.28;5022211;28;20049;-75
2022/01/11 02:10:09;;;;;;;1.20;1.10;;;;;;;4.26;57.45;93299.44;5005218;28;20484;-75
2022/01/11 02:12:35;;;;;;;2.08;1.58;;;;;;;4.39;56.51;93307.72;5020685;28;20114;-73
2022/01/11 02:15:02;;;;;;;1.52;1.30;;;;;;;4.26;57.33;93315.22;5012315;28;20123;-73
2022/01/11 02:17:29;;;;;;;0.80;0.80;;;;;;;4.28;55.89;93312.31;5022667;28;20509;-74
2022/01/11 02:19:57;;;;;;;1.08;0.80;;;;;;;4.16;56.20;93319.88;5016961;28;20068;-75
2022/01/11 02:22:24;;;;;;;0.75;0.75;;;;;;;4.04;57.54;93325.56;5016488;28;20092;-75
2022/01/11 02:24:50;;;;;;;1.00;1.00;;;;;;;4.14;56.74;93324.63;5017156;28;20060;-74
2022/01/11 02:27:16;;;;;;;2.90;0.90;;;;;;;3.87;57.11;93301.56;5027232;28;20230;-73
2022/01/11 02:29:42;;;;;;;1.00;1.00;;;;;;;3.83;57.51;93326.88;5026206;28;21242;-74
2022/01/11 02:32:08;;;;;;;0.75;0.75;;;;;;;4.05;56.22;93313.97;4997024;28;20041;-74
2022/01/11 02:34:33;;;;;;;0.80;0.80;;;;;;;3.97;56.82;93327.75;5017987;28;20028;-74
2022/01/11 02:36:59;;;;;;;3.58;1.17;;;;;;;4.16;56.48;93330.41;5017261;28;20369;-73
2022/01/11 02:39:24;;;;;;;0.93;0.90;;;;;;;4.11;55.61;93302.28;5016282;28;20087;-75
2022/01/11 02:41:54;;;;;;;0.73;0.73;;;;;;;4.17;55.56;93334.59;5015829;28;20041;-74
2022/01/11 02:44:20;;;;;;;1.98;1.10;;;;;;;4.06;56.11;93335.81;5014618;28;20041;-74
2022/01/11 02:46:45;;;;;;;4.55;1.33;;;;;;;3.77;56.88;93323.53;5014077;28;20053;-74
2022/01/11 02:49:11;;;;;;;1.23;1.00;;;;;;;3.52;57.61;93344.09;5013963;28;20572;-74
2022/01/11 02:51:36;;;;;;;0.70;0.70;;;;;;;3.50;57.81;93338.31;5019700;28;20036;-75
2022/01/11 02:54:04;;;;;;;1.60;1.25;;;;;;;3.84;57.56;93346.84;5014175;28;20072;-75
2022/01/11 02:56:30;;;;;;;1.35;1.17;;;;;;;3.87;57.09;93303.44;5023900;28;20036;-74
2022/01/11 02:58:56;;;;;;;3.50;1.20;;;;;;;4.22;56.56;93337.94;5010933;28;20052;-73
2022/01/11 03:01:21;;;;;;;6.03;3.03;;;;;;;4.17;56.64;93338.00;5010727;28;20167;-74
2022/01/11 03:03:47;;;;;;;2.33;1.70;;;;;;;4.24;56.53;93348.19;5025153;28;20044;-74
2022/01/11 03:06:13;;;;;;;5.32;2.08;;;;;;;4.11;56.58;93328.59;5002272;28;20600;-73
2022/01/11 03:08:44;;;;;;;2.33;1.30;;;;;;;4.07;56.89;93338.13;5007523;28;20084;-74
2022/01/11 03:11:11;;;;;;;1.55;1.02;;;;;;;3.20;57.48;93350.72;5017097;28;20060;-75
2022/01/11 03:13:38;;;;;;;1.15;0.93;;;;;;;3.58;57.65;93369.25;5002130;28;20075;-74
2022/01/11 03:16:04;;;;;;;1.88;0.98;;;;;;;4.06;56.88;93362.13;5013203;28;20489;-76
2022/01/11 03:18:29;;;;;;;1.67;1.10;;;;;;;3.64;57.52;93360.25;5025368;28;20037;-74
2022/01/11 03:20:55;;;;;;;1.83;1.35;;;;;;;3.48;57.32;93287.88;5010786;28;20449;-76
2022/01/11 03:23:22;;;;;;;1.00;1.00;;;;;;;4.05;56.72;93350.03;5012114;28;20033;-74
2022/01/11 03:25:49;;;;;;;1.10;1.00;;;;;;;3.59;56.89;93328.75;5016914;28;20669;-74
2022/01/11 03:28:21;;;;;;;0.95;0.90;;;;;;;3.70;57.61;93369.66;5011395;28;20033;-75
2022/01/11 03:30:48;;;;;;;1.95;1.00;;;;;;;3.53;57.40;93343.00;5016219;28;20040;-75
2022/01/11 03:33:14;;;;;;;1.33;1.00;;;;;;;3.63;57.44;93366.56;5023130;28;20048;-74
2022/01/11 03:35:40;;;;;;;1.20;1.10;;;;;;;3.91;56.75;93365.72;5005749;28;20040;-74
2022/01/11 03:38:08;;;;;;;1.05;1.00;;;;;;;3.98;56.77;93368.78;5013918;28;20032;-74
2022/01/11 03:40:33;;;;;;;0.80;0.80;;;;;;;4.04;56.77;93374.78;5009082;28;20545;-73
2022/01/11 03:42:59;;;;;;;3.33;1.67;;;;;;;4.01;55.35;93360.34;4998844;28;20049;-73
2022/01/11 03:45:26;;;;;;;3.80;1.90;;;;;;;3.77;54.65;93370.13;5016459;28;20033;-74
2022/01/11 03:47:54;;;;;;;1.13;1.08;;;;;;;3.99;54.30;93351.94;4994558;28;20426;-75
2022/01/11 03:50:20;;;;;;;1.00;0.90;;;;;;;4.23;54.84;93384.25;5020382;28;20033;-74
2022/01/11 03:52:46;;;;;;;1.25;0.90;;;;;;;3.91;54.40;93328.91;5005634;28;20037;-73
2022/01/11 03:55:20;;;;;;;1.38;1.10;;;;;;;4.12;54.61;93364.38;5011879;28;20025;-73
2022/01/11 03:57:48;;;;;;;10.03;1.20;;;;;;;4.10;54.07;93366.53;5014760;28;20040;-74
2022/01/11 04:00:17;;;;;;;0.93;0.90;;;;;;;4.20;54.43;93387.47;5010374;28;20121;-74
2022/01/11 04:02:43;;;;;;;9.68;3.60;;;;;;;3.90;54.59;93393.09;5014082;28;20056;-75
2022/01/11 04:05:11;;;;;;;2.42;1.67;;;;;;;3.67;54.60;93381.50;5015672;28;20045;-75
2022/01/11 04:07:37;;;;;;;1.90;1.60;;;;;;;4.17;53.80;93395.13;5018031;28;20822;-73
2022/01/11 04:10:03;;;;;;;1.92;1.10;;;;;;;4.19;53.66;93403.53;5021715;28;20064;-75
2022/01/11 04:12:29;;;;;;;1.00;1.00;;;;;;;4.21;53.33;93407.44;5015360;28;20037;-74
2022/01/11 04:14:54;;;;;;;0.82;0.82;;;;;;;4.09;53.21;93404.44;5002820;28;20036;-75
2022/01/11 04:17:20;;;;;;;0.70;0.70;;;;;;;3.86;52.60;93404.47;5019875;28;20053;-74
2022/01/11 04:19:45;;;;;;;6.35;2.25;;;;;;;3.82;53.35;93404.22;5016389;28;20087;-73
2022/01/11 04:22:11;;;;;;;1.77;1.60;;;;;;;3.02;53.44;93298.09;5013515;28;20033;-74
2022/01/11 04:24:37;;;;;;;10.05;4.07;;;;;;;3.64;54.10;93404.94;5009411;28;20038;-73
2022/01/11 04:27:02;;;;;;;2.92;2.58;;;;;;;3.42;54.49;93357.34;5016652;28;22217;-74
2022/01/11 04:29:28;;;;;;;0.90;0.90;;;;;;;3.73;53.55;93409.31;5023240;28;20037;-75
2022/01/11 04:31:53;;;;;;;0.90;0.90;;;;;;;3.57;54.35;93412.41;5011668;28;20037;-73
2022/01/11 04:34:19;;;;;;;1.10;1.00;;;;;;;3.75;53.85;93440.59;5013304;28;20404;-73
2022/01/11 04:36:44;;;;;;;1.00;1.00;;;;;;;3.78;53.80;93440.03;5022031;28;20037;-73
2022/01/11 04:39:12;;;;;;;0.85;0.85;;;;;;;3.56;53.43;93442.38;5010927;28;20038;-74
2022/01/11 04:41:38;;;;;;;0.90;0.90;;;;;;;3.27;54.22;93442.38;5022857;28;20045;-73
2022/01/11 04:44:04;;;;;;;2.00;1.15;;;;;;;2.96;54.96;93434.75;5019501;28;20048;-75
2022/01/11 04:46:30;;;;;;;0.82;0.82;;;;;;;3.06;55.87;93457.53;5018604;28;20241;-73
2022/01/11 04:48:56;;;;;;;1.08;0.90;;;;;;;3.06;56.46;93435.72;5011955;28;20060;-73
2022/01/11 04:51:24;;;;;;;1.15;0.90;;;;;;;3.40;56.05;93460.94;5020415;28;20435;-71
2022/01/11 04:53:50;;;;;;;1.42;1.00;;;;;;;3.37;54.82;93465.97;5012604;28;20496;-72
2022/01/11 04:56:16;;;;;;;3.55;2.38;;;;;;;3.29;54.84;93464.69;5019792;28;20047;-72
2022/01/11 04:58:41;;;;;;;1.58;1.27;;;;;;;2.96;54.96;93458.38;5015226;28;20522;-72
2022/01/11 05:01:07;;;;;;;1.02;0.98;;;;;;;3.33;54.54;93476.22;5005786;28;20351;-71
2022/01/11 05:03:33;;;;;;;1.02;1.02;;;;;;;3.54;54.27;93473.41;5015811;28;20385;-74
2022/01/11 05:05:59;;;;;;;1.38;1.20;;;;;;;3.29;54.29;93480.47;5019037;28;20032;-72
2022/01/11 05:08:24;;;;;;;0.90;0.90;;;;;;;1.94;57.75;93482.81;5018239;28;21401;-75
2022/01/11 05:10:50;;;;;;;1.10;1.02;;;;;;;2.81;56.43;93478.72;5019530;28;20400;-72
2022/01/11 05:13:18;;;;;;;0.80;0.80;;;;;;;2.92;55.37;93459.22;5017329;28;20040;-72
2022/01/11 05:15:44;;;;;;;0.90;0.90;;;;;;;3.10;54.33;93471.69;5019533;28;20041;-73
2022/01/11 05:18:13;;;;;;;0.80;0.80;;;;;;;2.99;54.89;93478.06;5023243;28;20045;-73
2022/01/11 05:20:39;;;;;;;2.45;2.20;;;;;;;2.94;55.99;93478.09;5007602;28;20687;-72
2022/01/11 05:23:06;;;;;;;2.33;1.50;;;;;;;2.77;55.78;93461.94;5022471;28;20119;-73
2022/01/11 05:25:33;;;;;;;1.83;1.20;;;;;;;3.06;54.82;93496.16;5009130;28;20040;-74
2022/01/11 05:27:59;;;;;;;0.73;0.73;;;;;;;2.78;54.08;93482.69;5006078;28;20124;-72
2022/01/11 05:30:25;;;;;;;1.45;0.90;;;;;;;3.00;54.50;93499.88;5021775;28;20632;-75
2022/01/11 05:32:52;;;;;;;1.40;1.20;;;;;;;2.83;54.17;93474.00;5020401;28;20247;-73
2022/01/11 05:35:20;;;;;;;1.65;1.55;;;;;;;2.97;54.88;93503.84;5023433;28;20143;-72
2022/01/11 05:37:47;;;;;;;1.25;1.00;;;;;;;3.12;54.21;93514.25;5013498;28;20508;-73
2022/01/11 05:40:14;;;;;;;1.27;1.17;;;;;;;3.11;54.31;93489.03;5015117;28;20106;-73
2022/01/11 05:42:40;;;;;;;2.70;1.90;;;;;;;3.13;55.27;93510.56;4996072;28;20052;-72
2022/01/11 05:45:07;;;;;;;2.45;2.00;;;;;;;2.84;55.40;93496.56;5012218;28;20093;-73
2022/01/11 05:47:33;;;;;;;1.98;1.77;;;;;;;2.88;55.38;93506.25;5014929;28;20143;-72
2022/01/11 05:50:00;;;;;;;3.03;1.30;;;;;;;2.77;55.13;93490.81;5004971;28;20706;-71
2022/01/11 05:52:25;;;;;;;1.08;0.95;;;;;;;2.41;54.86;93488.38;5023452;28;20073;-74
2022/01/11 05:54:51;;;;;;;0.70;0.70;;;;;;;2.52;55.71;93513.53;5003516;28;20039;-72
2022/01/11 05:57:16;;;;;;;1.30;1.20;;;;;;;2.44;56.09;93495.75;4995094;28;20029;-73
2022/01/11 05:59:42;;;;;;;1.73;1.60;;;;;;;2.76;55.63;93507.63;5012584;28;20279;-72
2022/01/11 06:02:07;;;;;;;1.17;0.90;;;;;;;2.80;55.25;93508.66;5016882;28;20049;-73
2022/01/11 06:04:32;;;;;;;2.42;1.60;;;;;;;2.75;55.47;93516.56;5012283;28;20299;-74
2022/01/11 06:06:58;;;;;;;1.83;1.73;;;;;;;2.83;55.26;93529.94;5005258;28;20037;-73
2022/01/11 06:09:26;;;;;;;5.18;2.13;;;;;;;2.76;55.68;93505.78;5015821;28;20045;-73
2022/01/11 06:11:56;;;;;;;3.60;1.73;;;;;;;3.13;55.38;93534.22;4999960;28;20067;-74
2022/01/11 06:14:25;;;;;;;2.80;1.35;;;;;;;3.18;53.79;93531.56;5020591;28;20045;-73
2022/01/11 06:16:50;;;;;;;1.52;1.00;;;;;;;2.81;54.01;93518.13;5008211;28;20033;-72
2022/01/11 06:19:16;;;;;;;1.20;1.10;;;;;;;3.22;54.52;93543.09;5024541;28;20036;-72
2022/01/11 06:21:41;;;;;;;2.90;1.20;;;;;;;3.25;54.17;93528.59;4989592;28;20047;-72
2022/01/11 06:24:07;;;;;;;0.90;0.90;;;;;;;3.21;53.15;93525.75;5009091;28;20037;-72
2022/01/11 06:26:37;;;;;;;1.95;1.10;;;;;;;3.20;53.28;93560.16;5012163;28;20041;-74
2022/01/11 06:29:03;;;;;;;0.98;0.98;;;;;;;3.30;51.75;93566.16;5014602;28;20106;-72
2022/01/11 06:31:30;;;;;;;1.70;1.60;;;;;;;2.98;53.40;93547.44;5008354;28;20406;-72
2022/01/11 06:33:56;;;;;;;1.10;1.10;;;;;;;3.15;53.37;93563.63;5015297;28;20025;-73
2022/01/11 06:36:22;;;;;;;1.40;1.30;;;;;;;3.14;53.02;93554.16;5016222;28;20041;-73
2022/01/11 06:38:47;;;;;;;1.30;1.00;;;;;;;3.29;52.23;93559.31;5013362;28;20497;-72
2022/01/11 06:41:13;;;;;;;1.15;1.08;;;;;;;2.99;52.03;93543.75;5016112;28;20056;-72
2022/01/11 06:43:39;;;;;;;1.15;1.00;;;;;;;2.90;52.74;93555.88;5014505;28;21047;-73
2022/01/11 06:46:05;;;;;;;1.60;1.40;;;;;;;2.74;52.89;93551.78;5007182;28;20209;-73
2022/01/11 06:48:32;;;;;;;0.93;0.93;;;;;;;2.57;54.22;93561.81;5001181;28;20175;-73
2022/01/11 06:50:57;;;;;;;1.85;1.30;;;;;;;2.47;54.42;93573.94;5016204;28;20511;-74
2022/01/11 06:53:24;;;;;;;1.48;1.30;;;;;;;2.00;55.70;93589.28;5002866;28;20354;-74
2022/01/11 06:55:50;;;;;;;1.15;1.05;;;;;;;2.28;54.93;93586.06;4992588;28;20045;-73
2022/01/11 06:58:17;;;;;;;1.27;1.17;;;;;;;2.62;52.93;93577.56;5000755;28;21037;-73
2022/01/11 07:00:43;;;;;;;1.40;1.30;;;;;;;2.75;53.38;93601.38;5015993;28;20164;-73
2022/01/11 07:03:09;;;;;;;1.08;1.08;;;;;;;2.90;52.99;93597.91;5017213;28;20037;-72
2022/01/11 07:05:34;;;;;;;1.55;1.40;;;;;;;2.40;54.54;93593.66;4990527;28;20045;-72
2022/01/11 07:08:00;;;;;;;1.95;1.48;;;;;;;1.44;54.42;93597.13;5022106;28;20041;-73
2022/01/11 07:10:25;;;;;;;1.48;1.33;;;;;;;1.36;54.88;93600.28;5009038;28;20067;-74
2022/01/11 07:12:50;;;;;;;1.70;1.30;;;;;;;2.09;55.20;93609.47;5017536;28;20032;-73
2022/01/11 07:15:16;;;;;;;5.20;2.67;;;;;;;2.18;54.62;93580.84;5016384;28;20040;-73
2022/01/11 07:17:42;;;;;;;4.03;2.08;;;;;;;2.01;53.85;93609.22;5024011;28;20505;-73
2022/01/11 07:20:09;;;;;;;3.83;1.83;;;;;;;1.04;54.32;93599.69;5019354;28;20043;-73
2022/01/11 07:22:36;;;;;;;3.40;2.17;;;;;;;1.13;56.66;93616.50;5009059;28;20087;-72
2022/01/11 07:25:01;;;;;;;2.33;1.70;;;;;;;1.68;55.70;93624.41;5018007;28;20075;-73
2022/01/11 07:27:27;;;;;;;2.33;1.50;;;;;;;1.91;54.38;93633.59;5016423;28;20029;-73
2022/01/11 07:29:52;;;;;;;2.05;1.85;;;;;;;1.36;55.13;93595.03;5004244;28;20401;-73
2022/01/11 07:32:18;;;;;;;2.83;1.85;;;;;;;1.66;55.60;93630.97;4991048;28;20609;-74
2022/01/11 07:34:43;;;;;;;2.10;1.90;;;;;;;2.19;55.14;93655.09;5018481;28;20025;-73
2022/01/11 07:37:09;;;;;;;1.40;1.30;;;;;;;1.32;54.76;93656.88;5013478;28;20082;-73
2022/01/11 07:39:34;;;;;;;2.40;1.67;;;;;;;0.97;54.82;93627.97;5021848;28;20491;-73
2022/01/11 07:42:00;;;;;;;1.67;1.58;;;;;;;0.59;56.46;93657.94;5025534;28;20048;-73
2022/01/11 07:44:27;;;;;;;4.25;3.28;;;;;;;0.71;56.98;93658.50;5028773;28;20123;-74
2022/01/11 07:46:53;;;;;;;1.45;1.13;;;;;;;0.84;56.67;93644.16;5006626;28;20044;-73
2022/01/11 07:49:20;;;;;;;3.67;1.38;;;;;;;1.34;56.36;93660.00;5031982;28;21006;-74
2022/01/11 07:51:45;;;;;;;2.05;1.35;;;;;;;1.67;55.67;93633.31;5022122;28;20040;-73
2022/01/11 07:54:13;;;;;;;5.20;1.77;;;;;;;1.96;55.16;93657.19;5021106;28;20041;-74
2022/01/11 07:56:38;;;;;;;16.63;6.28;;;;;;;2.25;54.48;93633.84;5006964;28;20056;-73
2022/01/11 07:59:04;;;;;;;3.33;2.38;;;;;;;2.56;54.23;93666.03;5020899;28;20319;-74
2022/01/11 08:01:29;;;;;;;2.92;1.60;;;;;;;2.33;54.95;93666.63;5019743;28;20576;-73
2022/01/11 08:03:55;;;;;;;2.63;1.50;;;;;;;2.42;53.69;93665.81;5008164;28;20485;-74
2022/01/11 08:06:20;;;;;;;2.00;1.50;;;;;;;2.41;53.82;93666.88;5024760;28;20555;-74
2022/01/11 08:08:45;;;;;;;1.15;1.10;;;;;;;2.59;54.38;93665.53;5010349;28;20053;-74
2022/01/11 08:11:11;;;;;;;1.10;1.10;;;;;;;2.56;52.02;93654.75;5016989;28;20151;-74
2022/01/11 08:13:38;;;;;;;2.08;1.88;;;;;;;2.96;51.94;93688.78;5024761;28;20040;-74
2022/01/11 08:16:03;;;;;;;3.40;1.83;;;;;;;3.16;51.37;93686.06;5021538;28;20053;-73
2022/01/11 08:18:29;;;;;;;2.63;1.75;;;;;;;2.50;52.39;93678.38;5026038;28;20184;-75
2022/01/11 08:20:54;;;;;;;4.45;2.65;;;;;;;2.80;52.28;93663.59;5019531;28;20048;-74
2022/01/11 08:23:20;;;;;;;1.63;1.50;;;;;;;2.47;53.62;93693.91;5027105;28;20466;-73
2022/01/11 08:25:45;;;;;;;4.30;2.45;;;;;;;2.51;53.15;93692.31;5019884;28;20473;-74
2022/01/11 08:28:11;;;;;;;3.83;2.85;;;;;;;1.43;55.18;93668.94;5040564;28;20501;-72
2022/01/11 08:30:36;;;;;;;2.90;2.15;;;;;;;1.32;56.00;93701.41;5026203;28;20094;-74
2022/01/11 08:33:04;;;;;;;5.10;2.50;;;;;;;1.73;55.41;93704.09;5023978;28;20037;-72
2022/01/11 08:35:31;;;;;;;6.30;4.03;;;;;;;2.02;54.80;93707.81;5022967;28;20042;-73
2022/01/11 08:37:57;;;;;;;2.63;2.28;;;;;;;1.56;55.34;93699.91;5015841;28;20123;-72
2022/01/11 08:40:23;;;;;;;1.60;1.50;;;;;;;1.89;55.09;93706.53;5023737;28;20115;-73
2022/01/11 08:42:49;;;;;;;2.20;1.35;;;;;;;1.98;54.97;93704.94;5024041;28;20546;-73
2022/01/11 08:45:15;;;;;;;2.13;1.48;;;;;;;2.19;54.86;93676.88;5018084;28;20036;-74
2022/01/11 08:47:43;;;;;;;1.55;1.30;;;;;;;2.07;55.37;93720.94;5022230;28;20057;-73
2022/01/11 08:50:13;;;;;;;4.85;1.65;;;;;;;0.47;57.40;93728.78;5035552;28;20871;-74
2022/01/11 08:52:40;;;;;;;3.40;2.88;;;;;;;0.81;58.25;93729.22;5040853;28;20671;-75
2022/01/11 08:55:07;;;;;;;2.30;2.10;;;;;;;0.65;58.51;93745.88;5025369;28;20044;-74
2022/01/11 08:57:34;;;;;;;1.92;1.60;;;;;;;0.38;58.86;93740.75;5020832;28;20070;-73
2022/01/11 09:00:02;;;;;;;2.58;2.38;;;;;;;0.52;59.00;93743.72;5015637;28;20642;-74
2022/01/11 09:02:27;;;;;;;7.00;4.63;;;;;;;0.78;58.64;93738.38;5023662;28;20547;-74
2022/01/11 09:04:53;;;;;;;3.10;2.10;;;;;;;0.78;58.60;93746.25;5022762;28;20045;-72
2022/01/11 09:07:19;;;;;;;1.88;1.63;;;;;;;0.97;59.14;93753.66;5017809;28;20795;-73
2022/01/11 09:09:45;;;;;;;3.72;1.90;;;;;;;0.65;58.41;93757.13;5017310;28;20163;-73
2022/01/11 09:12:12;;;;;;;5.00;2.60;;;;;;;0.04;59.51;93755.13;5017161;28;20122;-75
2022/01/11 09:14:39;;;;;;;4.75;2.80;;;;;;;-0.33;60.63;93761.06;5004706;28;21013;-73
2022/01/11 09:17:05;;;;;;;3.58;1.98;;;;;;;-0.42;60.37;93756.50;5023707;28;20042;-74
2022/01/11 09:19:31;;;;;;;2.15;1.83;;;;;;;-0.26;60.89;93734.72;5019676;28;20556;-73
2022/01/11 09:21:57;;;;;;;3.97;2.30;;;;;;;-0.41;61.54;93724.94;5021429;28;20021;-75
2022/01/11 09:24:29;;;;;;;1.65;1.55;;;;;;;0.01;60.89;93768.72;5001851;28;20052;-74
2022/01/11 09:26:56;;;;;;;2.35;1.80;;;;;;;-0.32;61.33;93767.06;5015307;28;20029;-73
2022/01/11 09:29:21;;;;;;;2.17;1.80;;;;;;;-0.45;61.94;93781.31;5024373;28;20045;-74
2022/01/11 09:31:46;;;;;;;1.90;1.65;;;;;;;-0.70;62.81;93783.66;5021481;28;20528;-74
2022/01/11 09:34:12;;;;;;;1.42;1.33;;;;;;;-0.53;62.83;93759.03;5019924;28;20124;-73
2022/01/11 09:36:38;;;;;;;1.40;1.30;;;;;;;-0.21;61.53;93751.25;5021854;28;20045;-73
2022/01/11 09:39:04;;;;;;;1.40;1.30;;;;;;;-0.29;61.46;93764.00;5010574;28;20155;-73
2022/01/11 09:41:29;;;;;;;1.40;1.30;;;;;;;-1.04;61.17;93775.94;5022197;28;20156;-73
2022/01/11 09:43:57;;;;;;;1.73;1.63;;;;;;;-1.46;63.07;93751.38;5007264;28;20068;-74
2022/01/11 09:46:23;;;;;;;2.15;1.95;;;;;;;-0.97;62.52;93775.75;5019835;28;20037;-73
2022/01/11 09:48:49;;;;;;;1.40;1.30;;;;;;;-0.54;62.31;93774.97;5007096;28;20108;-74
2022/01/11 09:51:15;;;;;;;1.80;1.63;;;;;;;-1.09;62.42;93781.09;5025381;28;20579;-73
2022/01/11 09:53:40;;;;;;;2.13;1.70;;;;;;;-1.29;64.21;93791.25;5020691;28;20470;-73
2022/01/11 09:56:07;;;;;;;1.45;1.30;;;;;;;-1.49;64.20;93777.91;5023767;28;20519;-74
2022/01/11 09:58:33;;;;;;;1.33;1.20;;;;;;;-1.16;64.55;93798.72;5022944;28;20031;-74
2022/01/11 10:00:59;;;;;;;1.42;1.33;;;;;;;-0.80;63.03;93791.38;5014971;28;20033;-72
2022/01/11 10:03:25;;;;;;;1.58;1.48;;;;;;;-0.57;61.57;93791.09;5023244;28;20033;-73
2022/01/11 10:05:50;;;;;;;1.85;1.50;;;;;;;-0.39;61.73;93797.84;5025622;28;20780;-73
2022/01/11 10:08:30;;;;;;;2.97;1.85;;;;;;;-0.12;60.15;93741.91;5008589;28;20094;-72
2022/01/11 10:10:58;;;;;;;1.40;1.30;;;;;;;0.30;59.16;93801.38;5028919;28;20076;-75
2022/01/11 10:13:33;;;;;;;1.58;1.45;;;;;;;0.52;58.96;93786.38;5002635;28;20166;-74
2022/01/11 10:16:34;;;;;;;2.20;1.67;;;;;;;0.03;58.57;93795.38;5025803;28;20048;-73
2022/01/11 10:19:00;;;;;;;1.58;1.45;;;;;;;-0.09;59.06;93767.56;5029965;28;20118;-73
2022/01/11 10:21:45;;;;;;;2.38;1.52;;;;;;;0.89;56.51;93796.03;5024302;28;20120;-74
2022/01/11 10:24:26;;;;;;;1.63;1.52;;;;;;;0.42;57.43;93793.34;5006492;28;20627;-74
2022/01/11 10:26:54;;;;;;;1.33;1.20;;;;;;;0.67;57.36;93793.53;5019948;28;20140;-73
2022/01/11 10:29:24;;;;;;;1.75;1.20;;;;;;;0.86;57.44;93793.91;5007764;28;20882;-73
2022/01/11 10:31:52;;;;;;;2.45;1.65;;;;;;;0.57;57.12;93786.41;5015919;28;20040;-73
2022/01/11 10:34:31;;;;;;;1.60;1.50;;;;;;;0.95;57.66;93795.00;5010726;28;20160;-72
2022/01/11 10:37:00;;;;;;;3.58;2.10;;;;;;;1.22;57.10;93793.06;5024010;28;20083;-73
2022/01/11 10:39:29;;;;;;;1.90;1.65;;;;;;;0.92;56.58;93798.16;5026126;28;20095;-73
2022/01/11 10:41:56;;;;;;;1.30;1.20;;;;;;;0.89;56.28;93783.72;5024873;28;20083;-74
2022/01/11 10:44:43;;;;;;;1.80;1.70;;;;;;;0.24;56.38;93805.00;5018002;28;20695;-72
2022/01/11 10:47:09;;;;;;;1.42;1.23;;;;;;;0.76;55.76;93792.03;5024194;28;20104;-72
2022/01/11 10:49:36;;;;;;;1.50;1.40;;;;;;;1.18;55.88;93797.25;5020378;28;20104;-73
2022/01/11 10:52:15;;;;;;;3.63;1.30;;;;;;;1.29;54.54;93777.09;5019869;28;20037;-72
2022/01/11 10:54:42;;;;;;;3.42;2.13;;;;;;;1.70;54.01;93804.25;5002605;28;20041;-74
2022/01/11 10:57:37;;;;;;;1.55;1.45;;;;;;;1.38;53.48;93792.06;5014380;28;20435;-73
2022/01/11 11:00:09;;;;;;;2.88;1.48;;;;;;;0.37;55.22;93801.94;5023279;28;20135;-74
2022/01/11 11:02:35;;;;;;;5.53;1.60;;;;;;;0.71;56.82;93795.41;5020962;28;20185;-73
2022/01/11 11:05:16;;;;;;;3.47;1.33;;;;;;;0.82;57.62;93798.88;5023705;28;20044;-73
2022/01/11 11:07:44;;;;;;;2.35;1.48;;;;;;;1.30;55.41;93792.59;5015061;28;20083;-73
2022/01/11 11:10:10;;;;;;;1.98;1.67;;;;;;;0.83;54.74;93791.81;5017128;28;20560;-73
2022/01/11 11:12:36;;;;;;;2.05;1.67;;;;;;;0.06;56.32;93784.41;5023388;28;20037;-74
2022/01/11 11:15:05;;;;;;;1.80;1.45;;;;;;;-0.58;57.06;93784.31;5020125;28;20094;-73
2022/01/11 11:17:33;;;;;;;2.08;1.83;;;;;;;-0.85;57.99;93805.16;5024650;28;20072;-74
2022/01/11 11:20:09;;;;;;;2.13;1.73;;;;;;;-1.24;58.54;93773.06;5023928;28;20603;-73
2022/01/11 11:22:34;;;;;;;2.20;1.85;;;;;;;-0.69;58.47;93780.81;5005355;28;20045;-72
2022/01/11 11:25:02;;;;;;;3.17;2.42;;;;;;;-0.00;57.61;93782.81;5021468;28;20098;-73
2022/01/11 11:27:30;;;;;;;1.70;1.60;;;;;;;-0.45;56.54;93742.13;5018892;28;20388;-73
2022/01/11 11:29:57;;;;;;;2.50;2.00;;;;;;;-0.74;56.82;93804.25;5018315;28;20128;-73
2022/01/11 11:32:22;;;;;;;2.13;1.73;;;;;;;-1.28;59.35;93802.50;5031560;28;20045;-73
2022/01/11 11:34:49;;;;;;;3.92;1.90;;;;;;;-0.75;59.47;93788.81;5013608;28;20053;-73
2022/01/11 11:37:22;;;;;;;5.07;2.08;;;;;;;-0.17;59.07;93807.22;5018478;28;20118;-73
2022/01/11 11:40:06;;;;;;;3.08;2.88;;;;;;;-0.11;57.98;93801.03;5021724;28;20047;-74
2022/01/11 11:42:32;;;;;;;2.33;2.13;;;;;;;-0.19;55.94;93800.69;5016639;28;20046;-73